X  Fermer Données météorologiques d'aviation de Metar     ETAR Ramstein Air Base
Température
7°C Température
3°C Point de rosée
76% Humidité



Vent
13 KM/H
8 MPH
4 M/S
7 KTS



360°
N
Conditions actuelles

Légère  Pluie Légère Pluie
Pression 1019.64 (hPa) - 30.11 (inHg)
Visibilité 6 (mile) - 9.7 (km)
Aéroport
Code de l'aéroport ETAR

Emplacement: Ramstein Air Base
Distance: 25 (km)

Metar:
ETAR 201005Z AUTO 36007KT 9999 -RA BKN023 BKN030 BKN036 07/03 A3011 RMK AO2 CIG 023V034 BKN023 V SCT SLP204 $

Temps: 20-04-2024 12:05 CEST